Washington, DC (20515)

10:55 AM EDT on August 22, 2014 (GMT -0400)
Capitol Hill, Washington, DC USA | Change Station
CLOSE
Current Station
Personal Weather Station
Location: Washington, DC
Elevation: 92 ft
Nearby Weather Stations

Elev 92 ft 38.89 °N, 76.99 °W | Updated 12 minutes ago

Mostly Cloudy
Mostly Cloudy
77.7 °F
Feels Like 80 °F
N
2.0
Wind Variable Wind from ENE

Today
High -- | Low -- °F
--% Chance of Precip.
Yesterday
High -- | Low -- °F
Precip. -- in
6:27 AM 7:53 PM
Waning Crescent, 8% visible
Pressure 30.00 in
Visibility 10.0 miles
Clouds Few 3500 ft
Mostly Cloudy 22000 ft
Heat Index 80 °F
Dew Point 73 °F
Humidity 86%
Rainfall 0.00 in
Snow Depth Not available.
UV 3 out of 12
Pollen 8.60 out of 12
Air Quality Not available.
Flu Activity Not available.
METAR KDCA 221352Z 04007KT 10SM FEW035 BKN220 27/20 A3000 RMK AO2 SLP159 T02670200

More Conditions Fewer Conditions

Pressure 30.00 in
Visibility 10.0 miles
Clouds Few 3500 ft
Mostly Cloudy 22000 ft
Heat Index 80 °F
Dew Point 73 °F
Humidity 86%
Rainfall 0.00 in
Snow Depth Not available.
UV 3 out of 12
Pollen 8.60 out of 12
Air Quality Not available.
Flu Activity Not available.
METAR KDCA 221352Z 04007KT 10SM FEW035 BKN220 27/20 A3000 RMK AO2 SLP159 T02670200

More Conditions Fewer Conditions

10-Day Weather Forecast

Almanac

Astronomy

Aug. 22, 2014 Rise Set
Actual Time 6:27 AM EDT 7:53 PM EDT
Civil Twilight 6:00 AM EDT 8:21 PM EDT
Nautical Twilight 5:26 AM EDT 8:54 PM EDT
Astronomical Twilight 4:51 AM EDT 9:29 PM EDT
Moon 3:49 AM EDT 5:59 PM EDT
Length of Visible Light 14h 21m
Length of Day
13h 25m
Tomorrow will be 2m 19s shorter.
Waning Crescent, 8% of the Moon is Illuminated
Today
Waning Crescent
Aug 25
New
Sep 2
First Quarter
Sep 8
Full
Sep 15
Last Quarter

Today's Extremes

State Highs State Lows

Community

WunderPhotos

Upload Photos

1,746,181 photos uploaded!

WunderBlogs® & News

Nearby

Snow Depth

Station Depth Elevation
No new snow has been reported.

Earthquake Activity

City Distance Mag. Time & Date
No recent earthquake activity has been reported nearby.
Minimum magnitude displayed is 2.5.

Coastal Water Temperatures

Place Temperature
Washington, DC 79.0 °F
Baltimore, MD 81.0 °F
Solomons Island, MD 80.1 °F

Nearby Weather Stations